Indianapolis, Indiana
Traffic Map
Current Weather Conditions
Indianapolis, Indiana
Scattered Clouds Haze
Scattered Clouds
43°
Feels Like: 43°
Wind Chill: 43° Ceiling: Unl
Heat Index: 43° Visibility: 5mi
Dew Point: 40° Wind: 3mph
Humidity: 89% Direction: 180° (S)
Pressure: 30.25in Gusts: 0mph
Raw Report DataKIND 231354Z 18003KT 5SM BR SCT250 06/04 A3025 RMK AO2 SLP248 T00610044
Traffic Incident Summary
Active as of:
Severity:
Category:
InformationThere was an issue retrieving the traffic information for this location. Please try a different location or try again shortly.
Advertisements
Track Severe Weather on mobile